Airfield :
LOGIN :

Register | Disclaimer

   EN    FR    IT 

 










Legend :    VFR   Marginal VFR   IFR   Intensive IFR   Very Intensive IFR
Visi :
Ceiling :
>= 8 km
>= 3000ft
5 to 8 km
1000 to 3000 ft
1500m to 5 km
500 to 1000 ft
800 to 1500m
200 to 500 ft
< 800m
< 200 ft
Symbols :   Thunderstorms  Fog  Heavy snow  Heavy precipitations  Wind > 20 kt
SIGMETs :     Misc.  Thunderstorms  Icing  Turbulence  Mountain Waves  Volcanic Ashes






- Airport Elevation : 1411 ft
- IATA code : ZHI


LSZG - Grenchen

CURRENT METAR :
  • 221250Z 05006KT 9999 FEW045 SCT090TCU 16/02 Q1019 NOSIG

EXPIRED METARs :
  • 221220Z 07014KT 9999 SCT060TCU 16/02 Q1020 NOSIG
  • 221150Z 06011KT 9999 SCT060TCU 16/05 Q1019 NOSIG
  • 221120Z 08008KT 9999 FEW055TCU 18/06 Q1019 NOSIG
  • 221050Z 06007KT 9999 FEW055TCU 17/07 Q1020 NOSIG
  • 221020Z 08006KT 030V120 9999 FEW055TCU 15/04 Q1020 NOSIG

TAF TAF LSZG
Valid from the 22 at 12:00 until the 22 at 21:00 UTC


221125Z 2212/2221 06007KT 9999 FEW055
TEMPO 2212/2218 FEW050TCU
PROB30
TEMPO 2212/2216 02015G25KT SHRA FEW050TCU
ATIS : +41 32 396 96 33



MET'MAP, your aeronautical weather chart ! - Copyright ORBIFLY December 2007 - Disclaimer

ORBIFLY MET'MAP TEAM :

Programming & Development : Alexandra Zaïnal
Concept & original design : Baudouin d'Aumeries
Assistance for programming : Marc-Olivier Méhu
Technical & hardware support : Manuel Goepfert

Contact : metmap@orbifly.com




SOURCES & CREDITS :

   NOAA